Time;durP1;ratioP1;P1;durP2;ratioP2;P2;SDS_P1;SDS_P2;PMS_P1;PMS_P2;Temp;Humidity;BMP_temperature;BMP_pressure;BME280_temperature;BME280_humidity;BME280_pressure;Samples;Min_cycle;Max_cycle;Signal;HPM_P1;HPM_P2
2023/04/06 00:01:36;;;;;;;10.00;8.20;;;3.10;96.10;;;2.86;59.07;94742.03;5082282;28;20457;-57
2023/04/06 00:04:04;;;;;;;10.73;7.67;;;3.10;96.10;;;2.89;59.47;94737.59;5081975;28;20443;-70
2023/04/06 00:06:31;;;;;;;10.40;7.23;;;3.20;96.00;;;2.92;58.86;94732.19;5078920;28;20564;-71
2023/04/06 00:08:59;;;;;;;11.57;7.27;;;3.20;95.80;;;2.92;59.39;94729.59;5074593;28;20581;-71
2023/04/06 00:11:26;;;;;;;9.73;7.40;;;3.20;95.50;;;2.93;59.01;94726.91;5081788;28;20442;-57
2023/04/06 00:13:54;;;;;;;10.50;6.93;;;3.20;95.50;;;2.94;58.50;94725.94;5083799;28;20456;-56
2023/04/06 00:16:22;;;;;;;10.57;7.67;;;3.20;95.50;;;2.94;58.42;94714.75;5081372;28;20518;-72
2023/04/06 00:18:51;;;;;;;8.73;7.03;;;3.20;95.40;;;2.93;59.14;94713.06;5077462;28;20485;-57
2023/04/06 00:21:18;;;;;;;8.37;6.50;;;3.20;95.30;;;2.92;58.76;94712.25;5079684;28;20488;-58
2023/04/06 00:23:46;;;;;;;6.97;6.33;;;3.20;95.00;;;2.92;58.51;94711.41;5076259;28;20561;-71
2023/04/06 00:26:13;;;;;;;9.50;7.30;;;3.20;94.90;;;2.92;58.04;94712.25;5074116;28;20643;-71
2023/04/06 00:28:41;;;;;;;7.60;6.90;;;3.20;95.00;;;2.94;58.65;94710.38;5077506;28;21130;-57
2023/04/06 00:31:08;;;;;;;8.83;7.70;;;3.20;95.00;;;2.98;58.63;94705.81;5079535;28;20454;-71
2023/04/06 00:33:36;;;;;;;9.80;7.00;;;3.30;95.10;;;2.98;58.42;94692.84;5077481;28;20466;-57
2023/04/06 00:36:05;;;;;;;8.13;6.70;;;3.30;94.90;;;2.99;57.73;94699.69;5081542;28;20446;-70
2023/04/06 00:38:33;;;;;;;13.97;8.90;;;3.30;95.10;;;2.99;58.65;94699.69;5087160;28;20466;-71
2023/04/06 00:41:00;;;;;;;9.23;7.13;;;3.30;94.90;;;2.98;57.90;94690.25;5078082;28;20487;-58
2023/04/06 00:43:28;;;;;;;9.60;7.47;;;3.30;94.70;;;2.97;58.46;94688.56;5083760;28;20517;-57
2023/04/06 00:45:55;;;;;;;10.47;7.67;;;3.30;94.90;;;2.97;57.72;94684.19;5083749;28;20477;-72
2023/04/06 00:48:23;;;;;;;11.10;7.77;;;3.30;95.00;;;2.99;58.35;94681.50;5083610;28;20474;-58
2023/04/06 00:50:50;;;;;;;11.70;7.70;;;3.30;95.00;;;2.99;57.80;94681.50;5079982;28;20470;-71
2023/04/06 00:53:19;;;;;;;9.70;7.80;;;3.30;94.70;;;3.00;58.40;94689.19;5083575;28;20479;-56
2023/04/06 00:55:46;;;;;;;7.90;6.57;;;3.30;94.80;;;3.01;58.66;94677.06;5085001;28;20454;-72
2023/04/06 00:58:14;;;;;;;10.50;8.23;;;3.30;94.90;;;3.03;58.32;94685.56;5084209;28;20471;-57
2023/04/06 01:00:42;;;;;;;9.00;7.30;;;3.30;94.80;;;3.03;58.31;94686.41;5080927;28;20502;-70
2023/04/06 01:03:09;;;;;;;11.87;7.60;;;3.30;94.70;;;3.02;58.18;94676.09;5084358;28;20542;-58
2023/04/06 01:05:40;;;;;;;9.50;7.63;;;3.40;94.80;;;2.99;58.32;94681.50;5079391;28;20947;-72
2023/04/06 01:08:07;;;;;;;8.17;7.23;;;3.30;95.00;;;2.96;58.66;94681.69;5081102;28;20515;-56
2023/04/06 01:10:36;;;;;;;10.23;7.63;;;3.30;95.00;;;2.94;57.93;94679.19;5080473;28;20998;-56
2023/04/06 01:13:03;;;;;;;9.80;7.07;;;3.30;95.00;;;2.94;58.57;94684.38;5083743;28;20536;-71
2023/04/06 01:15:31;;;;;;;10.90;7.67;;;3.20;95.20;;;2.96;58.35;94684.28;5081119;28;20461;-71
2023/04/06 01:17:58;;;;;;;9.67;8.67;;;3.20;95.30;;;2.97;59.04;94678.16;5083004;28;20469;-57
2023/04/06 01:20:26;;;;;;;9.33;7.17;;;3.30;95.40;;;2.98;58.63;94674.66;5081879;28;20486;-71
2023/04/06 01:22:55;;;;;;;9.67;7.60;;;3.30;95.70;;;2.99;59.28;94677.16;5087104;28;20551;-57
2023/04/06 01:25:22;;;;;;;9.20;7.47;;;3.30;95.70;;;3.01;59.20;94670.09;5072504;28;20967;-57
2023/04/06 01:27:50;;;;;;;8.60;7.60;;;3.30;95.80;;;3.02;59.09;94668.31;5081398;28;20476;-70
2023/04/06 01:30:17;;;;;;;10.73;7.07;;;3.30;95.80;;;3.04;58.78;94671.66;5081849;28;20522;-71
2023/04/06 01:32:45;;;;;;;11.33;8.60;;;3.30;95.80;;;3.03;59.01;94668.22;5085213;28;20858;-58
2023/04/06 01:35:12;;;;;;;10.83;8.63;;;3.30;95.80;;;3.04;59.20;94669.06;5080009;28;20442;-71
2023/04/06 01:37:40;;;;;;;11.80;8.10;;;3.30;95.90;;;3.02;59.80;94663.09;5076683;28;20475;-72
2023/04/06 01:40:11;;;;;;;13.67;9.20;;;3.30;96.00;;;3.02;58.96;94660.50;5082646;28;20486;-57
2023/04/06 01:42:38;;;;;;;8.03;7.23;;;3.30;96.00;;;3.04;59.96;94662.09;5082527;28;20546;-57
2023/04/06 01:45:07;;;;;;;10.43;8.03;;;3.30;96.10;;;3.07;59.22;94661.06;5080702;28;20565;-71
2023/04/06 01:47:35;;;;;;;9.80;8.80;;;3.30;96.10;;;3.09;59.30;94656.59;5079761;28;20466;-57
2023/04/06 01:50:06;;;;;;;12.03;8.87;;;3.40;96.20;;;3.08;59.19;94660.13;5083362;28;20470;-72
2023/04/06 01:52:33;;;;;;;9.60;8.60;;;3.40;96.10;;;3.08;59.23;94665.31;5080933;28;20458;-58
2023/04/06 01:55:01;;;;;;;13.60;8.17;;;3.40;96.20;;;3.09;59.30;94661.78;5082160;28;20457;-58
2023/04/06 01:57:30;;;;;;;8.53;7.30;;;3.40;96.20;;;3.10;59.47;94653.06;5075615;28;20483;-56
2023/04/06 01:59:57;;;;;;;8.70;7.80;;;3.40;96.20;;;3.12;59.65;94646.00;5086798;28;20485;-57
2023/04/06 02:02:25;;;;;;;8.17;7.37;;;3.40;96.30;;;3.12;59.78;94651.19;5084077;28;20469;-71
2023/04/06 02:04:52;;;;;;;10.30;8.73;;;3.40;96.30;;;3.12;59.59;94645.19;5083656;28;20457;-57
2023/04/06 02:07:20;;;;;;;10.07;8.43;;;3.40;96.30;;;3.12;60.10;94648.59;5077989;28;20534;-71
2023/04/06 02:09:47;;;;;;;9.60;8.60;;;3.40;96.40;;;3.13;60.12;94655.47;5084677;28;20511;-72
2023/04/06 02:12:15;;;;;;;11.67;8.43;;;3.40;96.30;;;3.13;59.65;94652.88;5081239;28;20863;-57
2023/04/06 02:14:43;;;;;;;10.83;8.90;;;3.40;96.30;;;3.13;59.83;94647.69;5078900;28;20468;-58
2023/04/06 02:17:11;;;;;;;9.00;8.20;;;3.40;96.30;;;3.14;59.62;94651.09;5086144;28;20475;-58
2023/04/06 02:19:38;;;;;;;11.50;8.57;;;3.40;96.20;;;3.14;59.84;94649.31;5083257;28;20572;-55
2023/04/06 02:22:06;;;;;;;9.50;7.83;;;3.50;96.30;;;3.16;59.89;94651.81;5081345;28;20497;-71
2023/04/06 02:24:33;;;;;;;7.57;6.83;;;3.40;96.30;;;3.14;59.12;94644.13;5078908;28;20457;-72
2023/04/06 02:27:01;;;;;;;11.57;7.60;;;3.40;96.30;;;3.14;60.06;94648.50;5079005;28;20472;-70
2023/04/06 02:29:28;;;;;;;9.33;7.37;;;3.40;96.30;;;3.12;60.07;94648.59;5079459;28;20451;-57
2023/04/06 02:31:57;;;;;;;13.67;6.70;;;3.40;96.30;;;3.12;59.37;94647.78;5080334;28;20972;-71
2023/04/06 02:34:25;;;;;;;10.70;8.20;;;3.40;96.30;;;3.13;59.93;94645.09;5079567;28;20461;-57
2023/04/06 02:36:52;;;;;;;8.30;7.50;;;3.40;96.30;;;3.14;59.66;94644.13;5075027;28;20475;-57
2023/04/06 02:39:20;;;;;;;11.17;8.70;;;3.40;96.40;;;3.14;60.30;94646.72;5078440;28;20505;-71
2023/04/06 02:41:47;;;;;;;10.63;8.80;;;3.40;96.40;;;3.16;59.40;94652.69;5081706;28;20481;-58
2023/04/06 02:44:15;;;;;;;10.17;8.27;;;3.40;96.50;;;3.13;60.16;94636.44;5083983;28;20458;-57
2023/04/06 02:46:42;;;;;;;11.67;8.63;;;3.50;96.40;;;3.22;59.56;94647.06;5081837;28;20450;-71
2023/04/06 02:49:11;;;;;;;13.33;8.53;;;3.50;96.30;;;3.22;59.00;94647.06;5078605;28;20447;-58
2023/04/06 02:51:38;;;;;;;8.87;7.63;;;3.50;96.10;;;3.25;59.63;94640.81;5081175;28;20473;-57
2023/04/06 02:54:06;;;;;;;12.90;6.43;;;3.50;96.00;;;3.28;59.48;94640.63;5081498;28;20450;-55
2023/04/06 02:56:33;;;;;;;6.23;5.63;;;3.60;96.00;;;3.29;58.05;94641.47;5080085;28;20450;-56
2023/04/06 02:59:01;;;;;;;5.70;5.20;;;3.60;95.50;;;3.27;57.51;94641.56;5081361;28;20453;-72
2023/04/06 03:01:28;;;;;;;11.57;7.87;;;3.60;94.80;;;3.27;57.56;94640.72;5079434;28;20512;-72
2023/04/06 03:03:56;;;;;;;7.60;6.90;;;3.50;94.90;;;3.27;58.72;94640.72;5079192;28;21024;-60
2023/04/06 03:06:25;;;;;;;10.13;7.77;;;3.60;95.50;;;3.28;59.42;94637.19;5081475;28;20450;-57
2023/04/06 03:08:52;;;;;;;10.13;8.40;;;3.60;95.80;;;3.29;59.76;94644.06;5077659;28;20584;-58
2023/04/06 03:11:20;;;;;;;13.90;8.20;;;3.60;95.90;;;3.30;59.17;94648.31;5079829;28;20446;-56
2023/04/06 03:13:48;;;;;;;8.53;7.70;;;3.60;96.00;;;3.29;59.24;94641.47;5082028;28;21009;-71
2023/04/06 03:16:15;;;;;;;12.13;8.87;;;3.60;96.10;;;3.29;59.50;94642.28;5079743;28;20477;-58
2023/04/06 03:18:44;;;;;;;12.90;9.90;;;3.60;96.10;;;3.30;59.12;94643.13;5077897;28;20524;-58
2023/04/06 03:21:12;;;;;;;11.80;9.80;;;3.60;96.30;;;3.29;59.18;94646.66;5079843;28;20490;-71
2023/04/06 03:23:41;;;;;;;13.50;9.90;;;3.60;96.30;;;3.28;60.26;94647.59;5077586;28;20528;-72
2023/04/06 03:26:08;;;;;;;9.87;7.93;;;3.60;96.40;;;3.27;59.63;94654.56;5080264;28;20981;-71
2023/04/06 03:28:35;;;;;;;10.87;8.17;;;3.50;96.20;;;3.29;59.22;94641.47;5079654;28;20463;-57
2023/04/06 03:31:03;;;;;;;11.33;8.93;;;3.50;96.20;;;3.28;60.13;94645.00;5081671;28;20811;-58
2023/04/06 03:33:30;;;;;;;13.23;9.07;;;3.50;96.40;;;3.29;59.91;94638.88;5077569;28;20489;-58
2023/04/06 03:35:58;;;;;;;12.20;8.17;;;3.60;96.50;;;3.29;60.33;94639.69;5079873;28;21585;-70
2023/04/06 03:38:25;;;;;;;13.13;10.17;;;3.60;96.60;;;3.30;60.26;94641.38;5077597;28;20477;-71
2023/04/06 03:40:54;;;;;;;16.00;11.30;;;3.60;96.60;;;3.29;60.53;94637.09;5080796;28;20862;-71
2023/04/06 03:43:22;;;;;;;24.33;13.07;;;3.60;96.90;;;3.28;60.41;94642.41;5070370;28;20570;-74
2023/04/06 03:45:49;;;;;;;19.23;14.80;;;3.60;97.00;;;3.28;60.23;94642.41;5076317;28;20494;-57
2023/04/06 03:48:17;;;;;;;13.40;10.87;;;3.60;97.10;;;3.28;59.85;94639.81;5076293;28;20474;-57
2023/04/06 03:50:44;;;;;;;18.50;12.80;;;3.60;96.90;;;3.29;61.60;94641.47;5079674;28;20465;-58
2023/04/06 03:53:12;;;;;;;19.40;14.50;;;3.60;97.90;;;3.31;61.17;94637.81;5084131;28;20482;-57
2023/04/06 03:55:39;;;;;;;25.53;19.67;;;3.60;97.40;;;3.32;60.63;94636.06;5079312;28;20542;-75
2023/04/06 03:58:08;;;;;;;15.50;11.80;;;3.60;97.50;;;3.34;61.48;94639.38;5083685;28;20489;-76
2023/04/06 04:00:36;;;;;;;15.20;10.53;;;3.60;97.50;;;3.34;60.51;94639.38;5078124;28;20589;-58
2023/04/06 04:03:03;;;;;;;13.07;10.43;;;3.60;97.40;;;3.33;61.12;94637.72;5079655;28;20481;-75
2023/04/06 04:05:31;;;;;;;12.37;10.37;;;3.60;97.50;;;3.33;61.30;94640.31;5076886;28;20543;-76
2023/04/06 04:07:58;;;;;;;15.40;10.67;;;3.60;97.50;;;3.31;61.91;94635.22;5085669;28;20557;-73
2023/04/06 04:10:26;;;;;;;16.47;11.50;;;3.60;98.00;;;3.31;61.86;94644.78;5080258;28;20454;-74
2023/04/06 04:12:53;;;;;;;16.63;11.00;;;3.60;98.00;;;3.28;60.76;94643.22;5084604;28;20570;-74
2023/04/06 04:15:22;;;;;;;17.73;11.00;;;3.60;97.70;;;3.22;61.93;94641.88;5081938;28;20807;-74
2023/04/06 04:17:50;;;;;;;13.97;10.10;;;3.50;98.00;;;3.20;61.30;94635.09;5083438;28;20466;-73
2023/04/06 04:20:18;;;;;;;22.53;10.43;;;3.50;98.00;;;3.19;60.83;94634.28;5082571;28;20468;-74
2023/04/06 04:22:45;;;;;;;11.50;9.60;;;3.50;98.00;;;3.21;61.80;94629.81;5087086;28;21264;-58
2023/04/06 04:25:12;;;;;;;12.17;9.90;;;3.40;97.90;;;3.25;61.59;94638.22;5080171;28;20457;-58
2023/04/06 04:27:40;;;;;;;11.83;8.97;;;3.50;98.10;;;3.29;61.59;94636.28;5084027;28;20465;-57
2023/04/06 04:30:09;;;;;;;12.90;9.40;;;3.50;98.30;;;3.32;61.65;94638.69;5081668;28;20450;-72
2023/04/06 04:32:38;;;;;;;10.43;8.90;;;3.50;97.80;;;3.38;60.45;94635.66;5083312;28;20490;-58
2023/04/06 04:35:06;;;;;;;19.00;10.77;;;3.60;97.50;;;3.42;61.57;94631.91;5072225;28;20489;-58
2023/04/06 04:37:34;;;;;;;22.27;11.40;;;3.70;98.00;;;3.46;61.40;94638.56;5084993;28;20980;-62
2023/04/06 04:40:02;;;;;;;23.30;11.07;;;3.70;97.90;;;3.47;61.98;94637.66;5079031;28;20819;-72
2023/04/06 04:42:29;;;;;;;16.90;11.50;;;3.70;98.10;;;3.50;60.67;94644.41;5080354;28;20546;-56
2023/04/06 04:44:57;;;;;;;14.07;9.80;;;3.80;97.90;;;3.52;61.44;94637.34;5082576;28;20454;-76
2023/04/06 04:47:24;;;;;;;15.57;12.20;;;3.80;97.60;;;3.54;61.33;94635.47;5079709;28;20467;-57
2023/04/06 04:49:53;;;;;;;16.20;11.87;;;3.80;98.00;;;3.58;61.28;94642.13;5085705;28;21011;-59
2023/04/06 04:52:21;;;;;;;21.73;9.50;;;3.80;98.10;;;3.63;61.09;94639.22;5080288;28;20469;-56
2023/04/06 04:54:48;;;;;;;13.30;9.90;;;3.90;98.00;;;3.66;61.18;94634.63;5080413;28;20794;-57
2023/04/06 04:57:15;;;;;;;14.07;10.50;;;3.90;98.00;;;3.70;60.71;94643.91;5086331;28;20470;-59
2023/04/06 04:59:44;;;;;;;11.50;9.50;;;3.90;97.60;;;3.75;60.95;94630.59;5080369;28;20442;-57
2023/04/06 05:02:12;;;;;;;10.90;9.50;;;4.00;97.60;;;3.81;60.88;94632.78;5081673;28;20576;-57
2023/04/06 05:04:39;;;;;;;10.60;7.93;;;4.00;97.60;;;3.83;60.04;94633.50;5080974;28;20511;-66
2023/04/06 05:07:08;;;;;;;9.50;8.60;;;4.10;97.00;;;3.85;59.71;94633.38;5080911;28;20502;-68
2023/04/06 05:09:36;;;;;;;15.80;9.23;;;4.10;96.60;;;3.87;59.69;94637.56;5083565;28;20453;-69
2023/04/06 05:12:04;;;;;;;10.33;7.83;;;4.10;96.60;;;3.91;59.33;94639.00;5080920;28;20569;-57
2023/04/06 05:14:31;;;;;;;20.53;9.80;;;4.20;96.40;;;3.94;58.74;94636.19;5082324;28;21020;-57
2023/04/06 05:16:58;;;;;;;10.17;8.67;;;4.20;96.20;;;3.95;58.85;94645.66;5080043;28;20525;-56
2023/04/06 05:19:26;;;;;;;10.00;8.73;;;4.20;95.90;;;3.97;58.64;94636.91;5083947;28;20446;-66
2023/04/06 05:21:54;;;;;;;10.43;8.50;;;4.20;95.80;;;4.00;58.72;94636.69;5080913;28;20594;-66
2023/04/06 05:24:22;;;;;;;17.10;9.60;;;4.20;95.80;;;4.03;58.48;94639.06;5083528;28;20481;-67
2023/04/06 05:26:50;;;;;;;12.13;9.57;;;4.30;95.90;;;4.05;58.31;94634.63;5074863;28;20819;-59
2023/04/06 05:29:18;;;;;;;16.20;9.87;;;4.30;95.70;;;4.06;58.01;94636.25;5082497;28;20826;-66
2023/04/06 05:31:45;;;;;;;20.03;9.80;;;4.30;95.20;;;4.07;58.31;94632.72;5079921;28;20478;-58
2023/04/06 05:34:13;;;;;;;16.90;9.30;;;4.30;95.50;;;4.04;58.11;94632.94;5081427;28;20453;-67
2023/04/06 05:36:41;;;;;;;14.50;10.50;;;4.30;95.10;;;4.04;58.35;94640.75;5076325;28;20564;-56
2023/04/06 05:39:08;;;;;;;14.73;9.87;;;4.30;95.30;;;4.00;57.92;94637.53;5082044;28;20496;-58
2023/04/06 05:41:37;;;;;;;20.80;10.57;;;4.30;95.10;;;3.98;58.28;94633.38;5086540;28;20482;-57
2023/04/06 05:44:05;;;;;;;19.77;11.53;;;4.20;95.10;;;3.97;58.39;94632.56;5081348;28;20442;-66
2023/04/06 05:46:32;;;;;;;16.43;10.23;;;4.20;95.60;;;4.00;58.48;94631.47;5080203;28;20741;-57
2023/04/06 05:49:00;;;;;;;15.20;8.80;;;4.20;95.60;;;4.02;58.37;94624.44;5082570;28;20442;-66
2023/04/06 05:51:27;;;;;;;20.00;10.90;;;4.20;95.50;;;4.04;58.42;94627.75;5079432;28;20533;-57
2023/04/06 05:53:55;;;;;;;17.30;12.83;;;4.30;95.60;;;4.04;58.56;94623.34;5081471;28;20461;-57
2023/04/06 05:56:23;;;;;;;15.40;10.93;;;4.30;95.70;;;4.08;58.63;94631.81;5080625;28;20451;-58
2023/04/06 05:58:52;;;;;;;15.97;10.00;;;4.30;95.70;;;4.09;58.62;94628.25;5081119;28;20443;-67
2023/04/06 06:01:19;;;;;;;13.90;10.00;;;4.30;95.70;;;4.08;58.80;94626.59;5077316;28;21056;-56
2023/04/06 06:03:47;;;;;;;19.20;11.57;;;4.30;95.60;;;4.09;58.86;94629.09;5079767;28;20478;-58
2023/04/06 06:06:14;;;;;;;16.90;10.83;;;4.30;95.80;;;4.14;58.86;94623.56;5081350;28;20450;-65
2023/04/06 06:08:42;;;;;;;13.53;9.00;;;4.40;95.90;;;4.22;58.69;94625.66;5082351;28;20470;-58
2023/04/06 06:11:09;;;;;;;13.43;10.23;;;4.40;95.90;;;4.34;58.84;94621.31;5082626;28;20457;-56
2023/04/06 06:13:36;;;;;;;13.20;10.10;;;4.50;96.20;;;4.52;59.19;94622.63;5081249;28;20462;-66
2023/04/06 06:16:06;;;;;;;14.03;8.73;;;4.70;96.60;;;4.70;59.21;94619.66;5082115;28;20468;-66
2023/04/06 06:18:33;;;;;;;13.10;9.60;;;4.80;96.60;;;4.85;58.15;94619.38;5079197;28;20557;-56
2023/04/06 06:21:01;;;;;;;14.17;9.40;;;5.00;95.70;;;5.01;58.34;94618.28;5082664;28;20450;-66
2023/04/06 06:23:28;;;;;;;13.70;9.67;;;5.20;95.50;;;5.18;56.97;94614.41;5079134;28;20558;-65
2023/04/06 06:25:57;;;;;;;12.70;9.10;;;5.30;95.00;;;5.28;56.63;94615.38;5083796;28;20461;-68
2023/04/06 06:28:26;;;;;;;17.63;9.30;;;5.40;94.60;;;5.33;56.35;94618.50;5078037;28;20545;-66
2023/04/06 06:30:53;;;;;;;16.80;10.73;;;5.50;94.10;;;5.34;56.57;94620.16;5082907;28;20465;-67
2023/04/06 06:33:22;;;;;;;10.67;8.70;;;5.60;94.20;;;5.36;56.04;94620.88;5077480;28;20474;-57
2023/04/06 06:35:51;;;;;;;12.33;8.87;;;5.60;93.90;;;5.35;55.93;94623.59;5076414;28;20455;-66
2023/04/06 06:38:18;;;;;;;16.27;9.43;;;5.60;93.60;;;5.33;56.04;94626.31;5079409;28;20552;-57
2023/04/06 06:40:47;;;;;;;18.60;10.10;;;5.60;93.50;;;5.31;55.96;94620.38;5082409;28;20453;-58
2023/04/06 06:43:14;;;;;;;13.70;10.67;;;5.50;93.60;;;5.30;56.37;94626.56;5084547;28;20486;-58
2023/04/06 06:45:42;;;;;;;15.93;9.70;;;5.50;93.70;;;5.28;56.03;94632.81;5081032;28;20446;-58
2023/04/06 06:48:10;;;;;;;12.60;10.10;;;5.50;93.40;;;5.22;56.00;94626.28;5079626;28;20882;-66
2023/04/06 06:50:39;;;;;;;17.63;10.70;;;5.50;93.40;;;5.23;56.34;94624.50;5080902;28;20446;-66
2023/04/06 06:53:07;;;;;;;10.93;9.17;;;5.50;93.70;;;5.31;56.16;94629.97;5079310;28;20945;-57
2023/04/06 06:55:34;;;;;;;13.27;10.07;;;5.50;93.90;;;5.41;56.13;94624.91;5079975;28;20442;-65
2023/04/06 06:58:01;;;;;;;10.63;8.77;;;5.60;93.80;;;5.48;55.89;94628.72;5079727;28;20550;-56
2023/04/06 07:00:29;;;;;;;9.43;7.77;;;5.70;93.40;;;5.48;55.10;94620.91;5077202;28;20903;-66
2023/04/06 07:02:57;;;;;;;13.73;10.20;;;5.70;93.10;;;5.50;55.65;94640.72;5077009;28;20589;-68
2023/04/06 07:05:24;;;;;;;14.73;10.27;;;5.70;93.10;;;5.53;55.53;94626.59;5079818;28;20479;-56
2023/04/06 07:07:53;;;;;;;18.93;9.80;;;5.70;93.10;;;5.55;55.28;94632.53;5080949;28;20466;-67
2023/04/06 07:10:21;;;;;;;14.20;10.20;;;5.70;92.90;;;5.56;55.20;94634.19;5080758;28;21061;-56
2023/04/06 07:12:48;;;;;;;16.10;9.30;;;5.80;92.80;;;5.56;55.62;94631.59;5079616;28;20473;-58
2023/04/06 07:15:16;;;;;;;15.30;9.30;;;5.80;93.00;;;5.61;55.24;94634.69;5077991;28;20453;-57
2023/04/06 07:17:45;;;;;;;14.67;9.30;;;5.80;92.40;;;5.66;55.08;94624.72;5076983;28;20497;-57
2023/04/06 07:20:13;;;;;;;13.30;8.53;;;5.90;92.70;;;5.78;55.07;94627.34;5077887;28;20905;-57
2023/04/06 07:22:41;;;;;;;11.10;9.43;;;6.00;92.80;;;5.86;54.48;94630.22;5081335;28;20572;-66
2023/04/06 07:25:11;;;;;;;11.60;9.10;;;6.10;92.30;;;5.92;53.93;94632.38;5077238;28;20451;-57
2023/04/06 07:27:38;;;;;;;14.80;10.13;;;6.10;91.60;;;5.91;53.36;94633.31;5082012;28;20470;-57
2023/04/06 07:30:07;;;;;;;12.50;9.00;;;6.10;91.20;;;5.86;54.19;94630.22;5077633;28;20449;-57
2023/04/06 07:32:35;;;;;;;12.07;8.70;;;6.10;91.50;;;5.82;53.75;94629.59;5080001;28;20584;-58
2023/04/06 07:35:03;;;;;;;12.30;9.10;;;6.10;91.30;;;5.80;53.48;94630.69;5081717;28;20456;-56
2023/04/06 07:37:30;;;;;;;10.80;8.27;;;6.00;91.10;;;5.80;53.56;94625.47;5076873;28;21037;-67
2023/04/06 07:39:58;;;;;;;13.70;10.30;;;6.00;91.30;;;5.82;54.01;94636.63;5078096;28;20450;-66
2023/04/06 07:42:27;;;;;;;14.07;9.70;;;6.00;91.10;;;5.87;54.30;94627.50;5083223;28;20496;-58
2023/04/06 07:44:54;;;;;;;14.20;9.10;;;6.10;91.40;;;5.92;53.77;94629.75;5082575;28;20465;-57
2023/04/06 07:47:21;;;;;;;17.03;10.17;;;6.10;91.10;;;5.99;54.32;94628.34;5079004;28;20943;-57
2023/04/06 07:49:49;;;;;;;17.93;10.10;;;6.20;91.50;;;6.14;53.53;94625.53;5079451;28;20446;-57
2023/04/06 07:52:16;;;;;;;11.30;8.57;;;6.30;91.30;;;6.25;53.85;94628.13;5079184;28;20470;-58
2023/04/06 07:54:44;;;;;;;9.63;8.60;;;6.40;91.20;;;6.37;53.87;94624.56;5077844;28;20912;-56
2023/04/06 07:57:11;;;;;;;8.93;8.00;;;6.50;91.00;;;6.46;51.65;94626.44;5078441;28;20594;-66
2023/04/06 07:59:40;;;;;;;14.60;7.30;;;6.60;88.00;;;6.59;52.42;94633.31;5076373;28;20450;-64
2023/04/06 08:02:07;;;;;;;14.73;9.73;;;6.80;89.70;;;6.71;52.33;94632.34;5074889;28;20505;-56
2023/04/06 08:04:35;;;;;;;9.23;7.10;;;6.90;89.70;;;6.79;51.24;94622.09;5082126;28;20451;-57
2023/04/06 08:07:03;;;;;;;14.83;8.77;;;7.00;88.10;;;6.84;51.73;94626.97;5077798;28;20475;-57
2023/04/06 08:09:30;;;;;;;8.13;6.80;;;7.00;88.00;;;6.89;51.07;94623.97;5081816;28;20519;-66
2023/04/06 08:11:58;;;;;;;9.23;7.47;;;7.10;86.80;;;7.00;51.29;94626.53;5079505;28;20543;-67
2023/04/06 08:14:25;;;;;;;12.73;8.53;;;7.20;87.30;;;7.18;51.88;94622.44;5077982;28;20457;-66
2023/04/06 08:16:55;;;;;;;9.63;8.03;;;7.30;88.10;;;7.42;50.18;94615.31;5077879;28;20495;-66
2023/04/06 08:19:22;;;;;;;10.93;7.70;;;7.50;84.50;;;7.56;50.77;94619.41;5079640;28;20473;-68
2023/04/06 08:21:51;;;;;;;16.27;9.67;;;7.70;84.80;;;7.59;49.92;94619.16;5077637;28;20482;-67
2023/04/06 08:24:18;;;;;;;20.80;8.33;;;7.80;84.50;;;7.65;50.82;94616.03;5080125;28;21009;-66
2023/04/06 08:26:46;;;;;;;10.17;7.70;;;7.80;84.60;;;7.74;50.42;94610.00;5081248;28;20540;-66
2023/04/06 08:29:13;;;;;;;14.40;7.40;;;7.90;84.10;;;7.81;49.88;94616.41;5081584;28;20454;-61
2023/04/06 08:31:41;;;;;;;13.70;7.97;;;7.90;83.60;;;7.86;50.65;94614.22;5073530;28;20447;-62
2023/04/06 08:34:10;;;;;;;11.70;6.93;;;8.00;85.30;;;7.89;49.92;94627.06;5077101;28;20457;-67
2023/04/06 08:36:37;;;;;;;9.10;7.73;;;8.00;83.70;;;7.93;49.97;94621.56;5076168;28;20927;-57
2023/04/06 08:39:05;;;;;;;9.73;7.90;;;8.10;83.80;;;7.94;49.92;94621.44;5078707;28;20450;-66
2023/04/06 08:41:33;;;;;;;8.33;7.20;;;8.10;82.70;;;7.96;49.59;94618.69;5078834;28;20456;-66
2023/04/06 08:44:01;;;;;;;9.90;7.87;;;8.10;82.40;;;8.11;49.98;94622.63;5075746;28;20492;-55
2023/04/06 08:46:30;;;;;;;12.63;8.40;;;8.30;82.40;;;8.43;49.56;94626.91;5077638;28;20446;-67
2023/04/06 08:48:57;;;;;;;8.43;7.10;;;8.50;83.60;;;8.69;48.14;94618.56;5079008;28;20822;-57
2023/04/06 08:51:26;;;;;;;11.37;8.67;;;8.70;81.00;;;8.76;47.53;94611.81;5075409;28;20460;-58
2023/04/06 08:53:55;;;;;;;12.57;8.50;;;8.90;78.40;;;8.74;48.20;94617.22;5079243;28;20841;-66
2023/04/06 08:56:23;;;;;;;12.50;8.17;;;8.90;78.40;;;8.75;47.57;94620.66;5079968;28;20476;-66
2023/04/06 08:58:50;;;;;;;10.53;8.20;;;8.90;77.70;;;8.78;47.67;94620.38;5077281;28;20462;-68
2023/04/06 09:01:21;;;;;;;10.07;7.53;;;8.90;77.60;;;8.77;47.90;94618.75;5086062;28;20565;-57
2023/04/06 09:03:50;;;;;;;10.57;9.00;;;8.90;77.80;;;8.85;47.85;94616.25;5078742;28;20582;-66
2023/04/06 09:06:17;;;;;;;13.60;8.30;;;9.00;78.30;;;9.01;48.26;94614.91;5082311;28;20806;-66
2023/04/06 09:08:46;;;;;;;9.57;7.70;;;9.10;78.60;;;9.32;48.09;94613.78;5082705;28;20478;-57
2023/04/06 09:11:14;;;;;;;19.37;8.87;;;9.40;78.80;;;9.77;47.66;94608.94;5083061;28;20501;-68
2023/04/06 09:13:50;;;;;;;9.70;8.43;;;9.70;78.80;;;10.11;44.94;94614.50;5079445;28;20472;-56
2023/04/06 09:16:17;;;;;;;12.53;7.67;;;10.00;73.20;;;10.32;44.48;94614.28;5079824;28;20437;-67
2023/04/06 09:18:45;;;;;;;8.50;7.60;;;10.30;70.60;;;10.45;45.09;94607.91;5082119;28;20473;-65
2023/04/06 09:21:12;;;;;;;11.90;8.03;;;10.50;71.30;;;10.60;45.05;94603.81;5084392;28;20511;-56
2023/04/06 09:23:40;;;;;;;16.73;7.10;;;10.60;70.80;;;10.91;44.30;94614.84;5080260;28;20509;-58
2023/04/06 09:26:13;;;;;;;13.53;6.83;;;10.90;69.30;;;11.38;44.83;94598.03;5083875;28;20450;-58
2023/04/06 09:28:45;;;;;;;17.43;7.87;;;11.30;70.60;;;11.95;42.09;94602.94;5079429;28;20485;-57
2023/04/06 09:31:14;;;;;;;7.90;6.73;;;11.80;66.60;;;12.36;42.77;94589.16;5081909;28;20458;-58
2023/04/06 09:33:43;;;;;;;11.90;6.83;;;12.20;66.80;;;12.57;42.32;94598.50;5083467;28;20549;-58
2023/04/06 09:36:10;;;;;;;19.53;8.60;;;12.50;65.40;;;12.65;42.21;94601.16;5079656;28;20492;-67
2023/04/06 09:38:39;;;;;;;10.97;7.30;;;12.70;64.60;;;12.72;42.23;94600.34;5081280;28;20466;-67
2023/04/06 09:41:06;;;;;;;9.83;7.27;;;12.80;64.30;;;12.80;41.07;94601.38;5083457;28;20475;-58
2023/04/06 09:43:35;;;;;;;11.50;6.90;;;12.80;61.90;;;12.79;41.35;94592.63;5082059;28;20539;-56
2023/04/06 09:46:04;;;;;;;9.97;7.77;;;12.80;60.80;;;12.70;40.56;94588.28;5079705;28;20453;-66
2023/04/06 09:48:32;;;;;;;11.90;8.10;;;12.80;60.00;;;12.54;41.44;94592.53;5082891;28;20466;-57
2023/04/06 09:51:04;;;;;;;13.57;8.23;;;12.60;60.80;;;12.37;40.97;94596.09;5079074;28;20542;-66
2023/04/06 09:53:32;;;;;;;11.77;7.87;;;12.50;59.40;;;12.20;40.58;94593.34;5081252;28;20527;-67
2023/04/06 09:56:00;;;;;;;12.43;8.30;;;12.30;59.40;;;12.09;40.61;94592.81;5083641;28;20447;-56
2023/04/06 09:58:29;;;;;;;8.57;7.10;;;12.20;59.40;;;12.04;41.80;94588.00;5081548;28;20461;-67
2023/04/06 10:01:02;;;;;;;9.23;8.33;;;12.20;61.10;;;12.11;40.64;94599.56;5082847;28;20772;-66
2023/04/06 10:03:37;;;;;;;8.00;7.20;;;12.10;60.20;;;12.13;39.90;94594.97;5078292;28;20501;-58
2023/04/06 10:06:07;;;;;;;8.03;6.60;;;12.20;59.60;;;12.09;40.94;94591.00;5079557;28;20463;-57
2023/04/06 10:08:35;;;;;;;10.47;7.53;;;12.20;58.80;;;12.12;41.87;94592.50;5078900;28;20474;-68
2023/04/06 10:11:02;;;;;;;10.07;6.50;;;12.10;60.80;;;12.19;41.07;94593.50;5080482;28;20447;-58
2023/04/06 10:13:30;;;;;;;10.20;7.03;;;12.20;59.80;;;12.14;40.95;94593.97;5076903;28;20474;-69
2023/04/06 10:15:58;;;;;;;7.83;6.73;;;12.20;58.80;;;12.07;40.97;94590.31;5082256;28;20573;-67
2023/04/06 10:18:26;;;;;;;8.57;6.63;;;12.10;58.70;;;12.08;39.45;94591.16;5079378;28;20487;-66
2023/04/06 10:20:57;;;;;;;9.23;6.60;;;12.10;57.80;;;12.15;40.00;94590.38;5083090;28;20912;-56
2023/04/06 10:23:30;;;;;;;7.53;6.87;;;12.10;58.00;;;12.13;39.70;94587.06;5079884;28;20527;-65
2023/04/06 10:25:59;;;;;;;7.73;6.93;;;12.20;56.50;;;12.10;39.13;94586.53;5083120;28;20877;-66
2023/04/06 10:28:27;;;;;;;7.60;6.40;;;12.20;56.50;;;12.12;39.92;94584.59;5084802;28;20529;-58